Time;durP1;ratioP1;P1;durP2;ratioP2;P2;SDS_P1;SDS_P2;PMS_P1;PMS_P2;Temp;Humidity;BMP_temperature;BMP_pressure;BME280_temperature;BME280_humidity;BME280_pressure;Samples;Min_cycle;Max_cycle;Signal;HPM_P1;HPM_P2
2022/10/08 00:01:47;;;;;;;1.20;1.10;;;;;;;;;;5119198;28;20436;-66
2022/10/08 00:04:15;;;;;;;1.42;1.30;;;;;;;;;;5118986;27;20199;-66
2022/10/08 00:06:43;;;;;;;1.70;1.38;;;;;;;;;;5139091;27;20301;-66
2022/10/08 00:09:12;;;;;;;1.55;1.35;;;;;;;;;;5138452;27;20194;-66
2022/10/08 00:11:41;;;;;;;1.40;1.30;;;;;;;;;;5138888;27;20289;-66
2022/10/08 00:14:09;;;;;;;1.20;1.20;;;;;;;;;;5137812;27;20205;-67
2022/10/08 00:16:38;;;;;;;1.55;1.45;;;;;;;;;;5138468;27;20198;-66
2022/10/08 00:19:07;;;;;;;1.40;1.30;;;;;;;;;;5139084;27;20289;-65
2022/10/08 00:21:35;;;;;;;1.55;1.40;;;;;;;;;;5139051;27;20198;-65
2022/10/08 00:24:04;;;;;;;1.25;1.15;;;;;;;;;;5139043;27;20228;-66
2022/10/08 00:26:34;;;;;;;1.50;1.40;;;;;;;;;;5138907;27;20285;-65
2022/10/08 00:29:03;;;;;;;1.35;1.25;;;;;;;;;;5138331;27;20229;-65
2022/10/08 00:31:32;;;;;;;1.40;1.30;;;;;;;;;;5138780;27;20578;-65
2022/10/08 00:34:00;;;;;;;1.38;1.27;;;;;;;;;;5138670;27;20198;-65
2022/10/08 00:36:30;;;;;;;1.38;1.27;;;;;;;;;;5138777;27;20684;-65
2022/10/08 00:38:58;;;;;;;1.40;1.30;;;;;;;;;;5138115;27;20206;-65
2022/10/08 00:41:27;;;;;;;1.75;1.65;;;;;;;;;;5138493;27;20202;-66
2022/10/08 00:43:57;;;;;;;1.40;1.30;;;;;;;;;;5137772;27;20202;-66
2022/10/08 00:46:26;;;;;;;1.35;1.25;;;;;;;;;;5139019;27;20586;-66
2022/10/08 00:48:56;;;;;;;1.42;1.33;;;;;;;;;;5150947;27;20282;-66
2022/10/08 00:51:24;;;;;;;1.52;1.42;;;;;;;;;;5159794;27;20254;-66
2022/10/08 00:53:53;;;;;;;1.55;1.45;;;;;;;;;;5138409;27;20278;-66
2022/10/08 00:56:20;;;;;;;1.30;1.20;;;;;;;;;;5138430;27;20297;-66
2022/10/08 00:58:49;;;;;;;1.60;1.50;;;;;;;;;;5138706;27;20222;-66
2022/10/08 01:01:18;;;;;;;1.60;1.50;;;;;;;;;;5138205;27;20202;-66
2022/10/08 01:03:46;;;;;;;1.50;1.40;;;;;;;;;;5137949;27;20524;-66
2022/10/08 01:06:16;;;;;;;1.50;1.40;;;;;;;;;;5120513;27;20336;-67
2022/10/08 01:08:47;;;;;;;1.63;1.52;;;;;;;;;;5117817;28;20335;-65
2022/10/08 01:11:22;;;;;;;1.40;1.30;;;;;;;;;;5116945;28;20508;-66
2022/10/08 01:13:57;;;;;;;1.40;1.30;;;;;;;;;;5117126;28;20233;-68
2022/10/08 01:16:32;;;;;;;1.40;1.30;;;;;;;;;;5117983;28;20211;-65
2022/10/08 01:19:03;;;;;;;1.70;1.60;;;;;;;;;;5117385;28;20284;-67
2022/10/08 01:21:36;;;;;;;1.40;1.30;;;;;;;;;;5117718;28;20211;-67
2022/10/08 01:24:16;;;;;;;1.40;1.30;;;;;;;;;;5117361;28;20586;-67
2022/10/08 01:26:50;;;;;;;1.50;1.40;;;;;;;;;;5116835;28;20265;-67
2022/10/08 01:29:22;;;;;;;1.35;1.25;;;;;;;;;;5116370;28;20223;-66
2022/10/08 01:31:53;;;;;;;1.50;1.40;;;;;;;;;;5117325;28;20213;-66
2022/10/08 01:34:24;;;;;;;1.55;1.45;;;;;;;;;;5116072;28;20218;-66
2022/10/08 01:36:54;;;;;;;1.48;1.38;;;;;;;;;;5117069;28;20662;-66
2022/10/08 01:39:23;;;;;;;1.50;1.40;;;;;;;;;;5117035;28;20264;-67
2022/10/08 01:41:55;;;;;;;1.40;1.30;;;;;;;;;;5117659;28;20211;-65
2022/10/08 01:44:27;;;;;;;1.40;1.30;;;;;;;;;;5116542;28;20207;-66
2022/10/08 01:46:58;;;;;;;1.30;1.20;;;;;;;;;;5117424;28;20203;-66
2022/10/08 01:49:27;;;;;;;1.50;1.40;;;;;;;;;;5117552;28;20509;-66
2022/10/08 01:51:57;;;;;;;1.40;1.30;;;;;;;;;;5117480;28;20202;-66
2022/10/08 01:54:27;;;;;;;1.60;1.50;;;;;;;;;;5116818;28;20508;-66
2022/10/08 01:56:55;;;;;;;1.50;1.40;;;;;;;;;;5116550;28;20203;-66
2022/10/08 01:59:27;;;;;;;1.50;1.40;;;;;;;;;;5116452;28;20253;-66
2022/10/08 02:01:59;;;;;;;1.75;1.50;;;;;;;;;;5116409;28;20211;-66
2022/10/08 02:04:35;;;;;;;1.60;1.50;;;;;;;;;;5116600;28;20203;-66
2022/10/08 02:07:06;;;;;;;1.48;1.38;;;;;;;;;;5117619;28;20357;-66
2022/10/08 02:09:35;;;;;;;1.40;1.30;;;;;;;;;;5117187;28;20261;-66
2022/10/08 02:12:03;;;;;;;1.40;1.30;;;;;;;;;;5117173;28;20214;-66
2022/10/08 02:14:32;;;;;;;1.52;1.42;;;;;;;;;;5116600;28;20203;-66
2022/10/08 02:17:08;;;;;;;1.40;1.30;;;;;;;;;;5117096;28;20207;-66
2022/10/08 02:19:40;;;;;;;1.60;1.50;;;;;;;;;;5116724;28;20198;-65
2022/10/08 02:22:08;;;;;;;1.50;1.40;;;;;;;;;;5116877;28;20267;-67
2022/10/08 02:24:39;;;;;;;1.30;1.20;;;;;;;;;;5117420;28;20280;-66
2022/10/08 02:27:09;;;;;;;1.40;1.30;;;;;;;;;;5116816;28;20242;-65
2022/10/08 02:29:42;;;;;;;1.55;1.45;;;;;;;;;;5116695;28;20610;-67
2022/10/08 02:32:12;;;;;;;1.70;1.60;;;;;;;;;;5115949;28;20215;-67
2022/10/08 02:34:42;;;;;;;1.40;1.30;;;;;;;;;;5116785;28;20290;-67
2022/10/08 02:37:11;;;;;;;1.63;1.52;;;;;;;;;;5117662;28;20203;-67
2022/10/08 02:39:40;;;;;;;1.58;1.48;;;;;;;;;;5120598;28;20523;-68
2022/10/08 02:42:11;;;;;;;1.50;1.40;;;;;;;;;;5120097;28;20231;-66
2022/10/08 02:44:42;;;;;;;1.58;1.48;;;;;;;;;;5120940;28;20560;-66
2022/10/08 02:47:13;;;;;;;1.50;1.40;;;;;;;;;;5119543;28;20198;-66
2022/10/08 02:49:44;;;;;;;1.50;1.40;;;;;;;;;;5120417;28;20613;-66
2022/10/08 02:52:12;;;;;;;1.40;1.30;;;;;;;;;;5120075;28;20235;-66
2022/10/08 02:54:41;;;;;;;1.63;1.50;;;;;;;;;;5120134;28;20246;-66
2022/10/08 02:57:12;;;;;;;1.80;1.70;;;;;;;;;;5120485;28;20217;-66
2022/10/08 02:59:42;;;;;;;1.77;1.67;;;;;;;;;;5120117;28;20207;-66
2022/10/08 03:02:10;;;;;;;1.70;1.60;;;;;;;;;;5119947;28;20641;-66
2022/10/08 03:04:39;;;;;;;1.75;1.63;;;;;;;;;;5120034;27;20499;-66
2022/10/08 03:07:09;;;;;;;1.60;1.50;;;;;;;;;;5119483;28;20210;-66
2022/10/08 03:09:38;;;;;;;1.70;1.60;;;;;;;;;;5120394;28;20223;-66
2022/10/08 03:12:07;;;;;;;1.50;1.40;;;;;;;;;;5119384;28;20203;-67
2022/10/08 03:14:36;;;;;;;1.60;1.50;;;;;;;;;;5119757;28;20203;-66
2022/10/08 03:17:06;;;;;;;1.70;1.60;;;;;;;;;;5120189;28;20231;-66
2022/10/08 03:19:34;;;;;;;1.48;1.38;;;;;;;;;;5119903;28;20210;-66
2022/10/08 03:22:03;;;;;;;1.45;1.35;;;;;;;;;;5119670;28;20246;-66
2022/10/08 03:24:31;;;;;;;1.70;1.60;;;;;;;;;;5119480;28;20583;-67
2022/10/08 03:26:59;;;;;;;1.65;1.55;;;;;;;;;;5120020;28;20203;-66
2022/10/08 03:29:26;;;;;;;1.50;1.40;;;;;;;;;;5119427;28;20235;-66
2022/10/08 03:31:54;;;;;;;1.58;1.48;;;;;;;;;;5119743;28;20256;-66
2022/10/08 03:34:25;;;;;;;1.77;1.67;;;;;;;;;;5119488;28;20207;-66
2022/10/08 03:36:53;;;;;;;1.60;1.50;;;;;;;;;;5118571;28;20277;-66
2022/10/08 03:39:21;;;;;;;1.40;1.30;;;;;;;;;;5119440;28;20288;-65
2022/10/08 03:41:48;;;;;;;1.70;1.60;;;;;;;;;;5118878;28;20259;-66
2022/10/08 03:44:16;;;;;;;1.50;1.40;;;;;;;;;;5119319;28;20476;-66
2022/10/08 03:46:44;;;;;;;1.50;1.40;;;;;;;;;;5119494;28;20306;-66
2022/10/08 03:49:12;;;;;;;1.55;1.45;;;;;;;;;;5118075;28;20230;-66
2022/10/08 03:51:41;;;;;;;1.73;1.63;;;;;;;;;;5119381;28;20203;-66
2022/10/08 03:54:09;;;;;;;1.70;1.60;;;;;;;;;;5119404;28;20210;-66
2022/10/08 03:56:37;;;;;;;1.70;1.60;;;;;;;;;;5119325;28;20229;-65
2022/10/08 03:59:04;;;;;;;1.63;1.52;;;;;;;;;;5118822;28;20294;-66
2022/10/08 04:01:32;;;;;;;1.83;1.73;;;;;;;;;;5118796;28;20202;-67
2022/10/08 04:03:59;;;;;;;1.50;1.40;;;;;;;;;;5118822;28;20202;-65
2022/10/08 04:06:27;;;;;;;1.45;1.35;;;;;;;;;;5118878;28;20269;-66
2022/10/08 04:08:59;;;;;;;1.50;1.40;;;;;;;;;;5119020;28;20220;-66
2022/10/08 04:11:27;;;;;;;1.50;1.40;;;;;;;;;;5119177;28;20771;-66
2022/10/08 04:13:54;;;;;;;1.60;1.50;;;;;;;;;;5119026;28;20203;-66
2022/10/08 04:16:22;;;;;;;1.48;1.38;;;;;;;;;;5118291;28;20282;-66
2022/10/08 04:18:49;;;;;;;1.60;1.50;;;;;;;;;;5118840;28;20601;-66
2022/10/08 04:21:18;;;;;;;1.58;1.48;;;;;;;;;;5117999;28;20238;-66
2022/10/08 04:23:46;;;;;;;1.50;1.40;;;;;;;;;;5118669;28;20264;-65
2022/10/08 04:26:15;;;;;;;1.95;1.60;;;;;;;;;;5118916;28;20203;-66
2022/10/08 04:28:44;;;;;;;1.65;1.55;;;;;;;;;;5118662;28;20330;-67
2022/10/08 04:31:15;;;;;;;1.75;1.65;;;;;;;;;;5117956;28;20229;-66
2022/10/08 04:33:42;;;;;;;1.70;1.60;;;;;;;;;;5118305;28;20219;-66
2022/10/08 04:36:10;;;;;;;1.73;1.63;;;;;;;;;;5117704;28;20249;-66
2022/10/08 04:38:38;;;;;;;1.60;1.50;;;;;;;;;;5118419;28;20286;-66
2022/10/08 04:41:06;;;;;;;1.70;1.60;;;;;;;;;;5117644;28;20285;-66
2022/10/08 04:43:35;;;;;;;1.58;1.48;;;;;;;;;;5118095;28;20251;-66
2022/10/08 04:46:03;;;;;;;1.83;1.73;;;;;;;;;;5117977;28;20738;-66
2022/10/08 04:48:31;;;;;;;1.58;1.48;;;;;;;;;;5118027;28;20637;-67
2022/10/08 04:50:59;;;;;;;1.60;1.50;;;;;;;;;;5117415;28;20238;-67
2022/10/08 04:53:27;;;;;;;1.60;1.50;;;;;;;;;;5117537;28;20631;-66
2022/10/08 04:55:54;;;;;;;1.77;1.67;;;;;;;;;;5118328;28;20479;-66
2022/10/08 04:58:23;;;;;;;1.50;1.40;;;;;;;;;;5117860;28;20289;-66
2022/10/08 05:00:51;;;;;;;1.63;1.52;;;;;;;;;;5116464;28;20202;-66
2022/10/08 05:03:19;;;;;;;1.60;1.50;;;;;;;;;;5117348;28;20203;-65
2022/10/08 05:05:47;;;;;;;1.65;1.55;;;;;;;;;;5117549;27;20333;-66
2022/10/08 05:08:14;;;;;;;1.50;1.40;;;;;;;;;;5117921;28;20931;-65
2022/10/08 05:10:49;;;;;;;1.77;1.67;;;;;;;;;;5116956;28;20227;-66
2022/10/08 05:13:16;;;;;;;1.92;1.83;;;;;;;;;;5117377;28;20202;-66
2022/10/08 05:15:44;;;;;;;1.85;1.75;;;;;;;;;;5117867;28;20562;-66
2022/10/08 05:18:12;;;;;;;1.77;1.67;;;;;;;;;;5117194;28;20297;-66
2022/10/08 05:20:40;;;;;;;1.65;1.55;;;;;;;;;;5117790;28;20264;-66
2022/10/08 05:23:07;;;;;;;1.67;1.58;;;;;;;;;;5117245;28;20299;-66
2022/10/08 05:25:36;;;;;;;1.70;1.60;;;;;;;;;;5118309;28;20298;-66
2022/10/08 05:28:04;;;;;;;1.52;1.42;;;;;;;;;;5118005;28;20285;-66
2022/10/08 05:30:31;;;;;;;1.63;1.52;;;;;;;;;;5118264;28;20292;-65
2022/10/08 05:32:59;;;;;;;1.50;1.40;;;;;;;;;;5117737;28;20238;-66
2022/10/08 05:35:27;;;;;;;1.67;1.58;;;;;;;;;;5118048;28;20209;-66
2022/10/08 05:37:55;;;;;;;1.90;1.80;;;;;;;;;;5118518;28;20206;-66
2022/10/08 05:40:23;;;;;;;1.63;1.52;;;;;;;;;;5109877;28;20614;-66
2022/10/08 05:42:51;;;;;;;1.48;1.38;;;;;;;;;;5120248;28;20227;-66
2022/10/08 05:45:19;;;;;;;1.70;1.60;;;;;;;;;;5109269;28;20233;-66
2022/10/08 05:47:48;;;;;;;1.60;1.50;;;;;;;;;;5128453;28;20293;-66
2022/10/08 05:50:16;;;;;;;1.70;1.60;;;;;;;;;;5117684;28;20222;-66
2022/10/08 05:52:45;;;;;;;1.60;1.50;;;;;;;;;;5128803;28;20286;-66
2022/10/08 05:55:13;;;;;;;1.65;1.55;;;;;;;;;;5116180;28;20194;-66
2022/10/08 05:57:40;;;;;;;1.70;1.60;;;;;;;;;;5117655;28;20517;-66
2022/10/08 06:00:09;;;;;;;1.80;1.70;;;;;;;;;;5116606;28;20257;-66
2022/10/08 06:02:36;;;;;;;1.70;1.60;;;;;;;;;;5116335;28;20199;-66
2022/10/08 06:05:04;;;;;;;1.60;1.50;;;;;;;;;;5120420;28;20260;-66
2022/10/08 06:07:32;;;;;;;1.63;1.52;;;;;;;;;;5127896;27;20256;-66
2022/10/08 06:10:01;;;;;;;1.58;1.48;;;;;;;;;;5117201;28;20223;-66
2022/10/08 06:12:29;;;;;;;1.98;1.88;;;;;;;;;;5131799;27;20469;-66
2022/10/08 06:14:56;;;;;;;1.52;1.42;;;;;;;;;;5128501;27;20257;-66
2022/10/08 06:17:24;;;;;;;1.80;1.70;;;;;;;;;;5138966;27;20198;-66
2022/10/08 06:19:51;;;;;;;1.50;1.40;;;;;;;;;;5140625;27;20305;-66
2022/10/08 06:22:19;;;;;;;1.80;1.70;;;;;;;;;;5141085;27;20202;-65
2022/10/08 06:24:46;;;;;;;1.83;1.73;;;;;;;;;;5141410;27;20213;-66
2022/10/08 06:27:15;;;;;;;1.50;1.40;;;;;;;;;;5141362;27;20570;-66
2022/10/08 06:29:43;;;;;;;1.50;1.40;;;;;;;;;;5141640;27;20375;-66
2022/10/08 06:32:10;;;;;;;1.77;1.67;;;;;;;;;;5141500;27;20331;-66
2022/10/08 06:34:38;;;;;;;1.67;1.42;;;;;;;;;;5141048;27;20642;-66
2022/10/08 06:37:05;;;;;;;1.80;1.70;;;;;;;;;;5140762;27;20647;-66
2022/10/08 06:39:33;;;;;;;1.70;1.60;;;;;;;;;;5140404;27;20198;-65
2022/10/08 06:42:00;;;;;;;1.50;1.40;;;;;;;;;;5139939;27;20259;-66
2022/10/08 06:44:29;;;;;;;1.67;1.58;;;;;;;;;;5139626;27;20342;-66
2022/10/08 06:46:57;;;;;;;1.77;1.67;;;;;;;;;;5139327;27;20203;-66
2022/10/08 06:49:25;;;;;;;1.90;1.80;;;;;;;;;;5139880;27;20222;-66
2022/10/08 06:51:53;;;;;;;2.63;1.60;;;;;;;;;;5140978;27;20225;-66
2022/10/08 06:54:20;;;;;;;1.52;1.42;;;;;;;;;;5140137;27;20233;-66
2022/10/08 06:56:47;;;;;;;2.75;1.80;;;;;;;;;;5140193;27;20297;-65
2022/10/08 06:59:15;;;;;;;1.70;1.60;;;;;;;;;;5139454;27;20211;-66
2022/10/08 07:01:44;;;;;;;1.83;1.50;;;;;;;;;;5140310;27;20300;-66
2022/10/08 07:04:11;;;;;;;1.60;1.50;;;;;;;;;;5139951;27;20252;-66
2022/10/08 07:06:39;;;;;;;1.83;1.35;;;;;;;;;;5140149;27;20297;-66
2022/10/08 07:09:09;;;;;;;1.92;1.67;;;;;;;;;;5127665;27;20199;-66
2022/10/08 07:11:36;;;;;;;1.73;1.63;;;;;;;;;;5119547;27;20207;-66
2022/10/08 07:14:04;;;;;;;2.05;1.90;;;;;;;;;;5119655;28;20305;-66
2022/10/08 07:16:32;;;;;;;1.98;1.63;;;;;;;;;;5121891;27;20663;-66
2022/10/08 07:19:01;;;;;;;1.90;1.70;;;;;;;;;;5134612;27;20190;-66
2022/10/08 07:21:29;;;;;;;1.63;1.52;;;;;;;;;;5139780;27;20210;-66
2022/10/08 07:23:56;;;;;;;2.70;1.73;;;;;;;;;;5139039;27;20279;-66
2022/10/08 07:26:24;;;;;;;1.77;1.67;;;;;;;;;;5139512;27;20360;-66
2022/10/08 07:28:53;;;;;;;1.63;1.50;;;;;;;;;;5139598;27;20203;-66
2022/10/08 07:31:22;;;;;;;1.60;1.50;;;;;;;;;;5139049;27;20291;-66
2022/10/08 07:33:49;;;;;;;1.77;1.67;;;;;;;;;;5139035;27;20198;-66
2022/10/08 07:36:19;;;;;;;1.73;1.63;;;;;;;;;;5097959;28;20267;-66
2022/10/08 07:38:46;;;;;;;1.40;1.30;;;;;;;;;;5098392;28;20200;-66
2022/10/08 07:41:14;;;;;;;2.20;1.60;;;;;;;;;;5097496;28;20207;-67
2022/10/08 07:43:42;;;;;;;1.60;1.50;;;;;;;;;;5098054;28;20251;-66
2022/10/08 07:46:10;;;;;;;2.03;1.80;;;;;;;;;;5098178;28;20622;-66
2022/10/08 07:48:38;;;;;;;1.90;1.80;;;;;;;;;;5097840;28;20235;-66
2022/10/08 07:51:09;;;;;;;1.63;1.52;;;;;;;;;;5097633;28;20293;-65
2022/10/08 07:53:38;;;;;;;1.67;1.58;;;;;;;;;;5098379;28;20214;-66
2022/10/08 07:56:06;;;;;;;1.70;1.60;;;;;;;;;;5098643;28;20269;-66
2022/10/08 07:58:34;;;;;;;1.50;1.40;;;;;;;;;;5096913;28;20208;-66
2022/10/08 08:01:02;;;;;;;1.92;1.80;;;;;;;;;;5097889;28;20285;-66
2022/10/08 08:03:30;;;;;;;2.20;1.52;;;;;;;;;;5098038;28;20212;-66
2022/10/08 08:06:01;;;;;;;1.95;1.60;;;;;;;;;;5112482;27;20786;-66
2022/10/08 08:08:28;;;;;;;1.60;1.50;;;;;;;;;;5116798;28;20592;-66
2022/10/08 08:10:58;;;;;;;1.65;1.55;;;;;;;;;;5117919;28;20330;-67
2022/10/08 08:13:26;;;;;;;1.45;1.35;;;;;;;;;;5117773;28;20294;-66
2022/10/08 08:15:57;;;;;;;1.60;1.50;;;;;;;;;;5130883;27;20237;-66
2022/10/08 08:18:24;;;;;;;1.60;1.50;;;;;;;;;;5137853;27;20209;-69
2022/10/08 08:20:58;;;;;;;1.50;1.40;;;;;;;;;;5138502;27;20679;-67
2022/10/08 08:23:29;;;;;;;1.40;1.30;;;;;;;;;;5138013;27;20229;-67
2022/10/08 08:26:00;;;;;;;1.63;1.52;;;;;;;;;;5122964;27;20198;-66
2022/10/08 08:28:27;;;;;;;1.48;1.38;;;;;;;;;;5117666;28;20292;-66
2022/10/08 08:30:56;;;;;;;1.58;1.48;;;;;;;;;;5117869;28;20241;-66
2022/10/08 08:33:23;;;;;;;1.40;1.30;;;;;;;;;;5117141;28;20211;-66
2022/10/08 08:35:51;;;;;;;1.77;1.67;;;;;;;;;;5129035;27;20198;-66
2022/10/08 08:38:19;;;;;;;1.83;1.73;;;;;;;;;;5138275;27;20202;-66
2022/10/08 08:40:47;;;;;;;1.77;1.50;;;;;;;;;;5137472;27;20198;-66
2022/10/08 08:43:16;;;;;;;2.30;1.80;;;;;;;;;;5137682;27;20288;-66
2022/10/08 08:45:43;;;;;;;1.75;1.42;;;;;;;;;;5125696;27;20202;-66
2022/10/08 08:48:15;;;;;;;1.60;1.50;;;;;;;;;;5116702;28;20238;-66
2022/10/08 08:50:43;;;;;;;1.42;1.30;;;;;;;;;;5116663;28;20317;-66
2022/10/08 08:53:11;;;;;;;1.50;1.40;;;;;;;;;;5116698;28;20230;-67
2022/10/08 08:55:40;;;;;;;1.60;1.50;;;;;;;;;;5126380;27;20209;-67
2022/10/08 08:58:16;;;;;;;1.50;1.40;;;;;;;;;;5137413;27;20605;-67
2022/10/08 09:00:47;;;;;;;1.52;1.42;;;;;;;;;;5136766;27;20208;-68
2022/10/08 09:03:17;;;;;;;1.52;1.40;;;;;;;;;;5136588;27;20291;-67
2022/10/08 09:05:46;;;;;;;1.50;1.40;;;;;;;;;;5123992;27;20650;-65
2022/10/08 09:08:15;;;;;;;1.58;1.45;;;;;;;;;;5115853;28;20587;-68
2022/10/08 09:10:44;;;;;;;1.92;1.52;;;;;;;;;;5115646;28;20537;-66
2022/10/08 09:13:14;;;;;;;2.30;1.58;;;;;;;;;;5115510;28;20227;-68
2022/10/08 09:15:42;;;;;;;1.80;1.40;;;;;;;;;;5118581;27;20285;-66
2022/10/08 09:18:13;;;;;;;1.88;1.60;;;;;;;;;;5136208;27;20293;-67
2022/10/08 09:20:41;;;;;;;2.15;1.70;;;;;;;;;;5136029;27;20197;-66
2022/10/08 09:23:13;;;;;;;2.38;1.55;;;;;;;;;;5136209;27;20233;-66
2022/10/08 09:25:42;;;;;;;1.48;1.38;;;;;;;;;;5125493;27;20203;-66
2022/10/08 09:28:09;;;;;;;1.70;1.60;;;;;;;;;;5116014;28;20203;-66
2022/10/08 09:30:38;;;;;;;2.53;1.50;;;;;;;;;;5136597;27;20254;-67
2022/10/08 09:33:17;;;;;;;1.75;1.52;;;;;;;;;;5136399;27;20273;-66
2022/10/08 09:35:47;;;;;;;2.78;1.50;;;;;;;;;;5125260;27;20203;-67
2022/10/08 09:38:20;;;;;;;1.50;1.40;;;;;;;;;;5115576;28;20230;-66
2022/10/08 09:41:00;;;;;;;1.52;1.42;;;;;;;;;;5114716;28;20226;-66
2022/10/08 09:43:28;;;;;;;1.50;1.40;;;;;;;;;;5115273;28;20298;-66
2022/10/08 09:45:56;;;;;;;1.52;1.42;;;;;;;;;;5115299;28;20190;-66
2022/10/08 09:48:25;;;;;;;1.73;1.63;;;;;;;;;;5139664;27;20198;-66
2022/10/08 09:50:56;;;;;;;2.95;1.70;;;;;;;;;;5139379;27;20252;-66
2022/10/08 09:53:25;;;;;;;1.80;1.40;;;;;;;;;;5140761;27;20245;-68
2022/10/08 09:55:55;;;;;;;1.70;1.60;;;;;;;;;;5128602;27;20191;-66
2022/10/08 09:58:22;;;;;;;2.20;1.75;;;;;;;;;;5119401;28;20285;-67
2022/10/08 10:01:02;;;;;;;1.67;1.58;;;;;;;;;;5119421;28;20255;-68
2022/10/08 10:03:30;;;;;;;1.60;1.50;;;;;;;;;;5119417;28;20302;-65
2022/10/08 10:06:00;;;;;;;3.10;1.67;;;;;;;;;;5118669;28;20277;-66
2022/10/08 10:08:45;;;;;;;2.40;1.67;;;;;;;;;;5119952;28;20301;-68
2022/10/08 10:11:13;;;;;;;2.25;1.60;;;;;;;;;;5119577;28;20237;-66
2022/10/08 10:13:42;;;;;;;1.65;1.55;;;;;;;;;;5118993;28;20293;-67
2022/10/08 10:16:13;;;;;;;1.50;1.40;;;;;;;;;;5118165;28;20210;-66
2022/10/08 10:18:44;;;;;;;1.55;1.45;;;;;;;;;;5119410;28;20203;-65
2022/10/08 10:21:16;;;;;;;1.50;1.40;;;;;;;;;;5119728;28;20205;-66
2022/10/08 10:23:47;;;;;;;1.75;1.65;;;;;;;;;;5118356;28;20230;-66
2022/10/08 10:26:16;;;;;;;1.50;1.40;;;;;;;;;;5118543;28;20290;-66
2022/10/08 10:28:46;;;;;;;1.70;1.60;;;;;;;;;;5118769;28;20273;-66
2022/10/08 10:31:17;;;;;;;1.50;1.40;;;;;;;;;;5118493;28;20290;-66
2022/10/08 10:33:50;;;;;;;1.65;1.40;;;;;;;;;;5118263;28;20207;-65
2022/10/08 10:36:21;;;;;;;1.50;1.40;;;;;;;;;;5118648;28;20203;-67
2022/10/08 10:38:52;;;;;;;1.58;1.48;;;;;;;;;;5119328;28;20301;-68
2022/10/08 10:41:23;;;;;;;2.03;1.60;;;;;;;;;;5119120;28;20268;-66
2022/10/08 10:43:51;;;;;;;1.98;1.50;;;;;;;;;;5118596;28;20285;-67
2022/10/08 10:46:27;;;;;;;1.45;1.35;;;;;;;;;;5118389;28;20195;-66
2022/10/08 10:48:55;;;;;;;1.65;1.55;;;;;;;;;;5119174;28;20681;-66
2022/10/08 10:51:43;;;;;;;1.50;1.40;;;;;;;;;;5119226;28;20258;-66
2022/10/08 10:54:21;;;;;;;2.03;1.40;;;;;;;;;;5076306;28;20211;-65
2022/10/08 10:56:52;;;;;;;2.10;1.42;;;;;;;;;;5117157;28;20264;-66
2022/10/08 10:59:40;;;;;;;1.90;1.70;;;;;;;;;;5118236;28;20264;-65
2022/10/08 11:02:13;;;;;;;1.60;1.50;;;;;;;;;;5118874;28;20194;-68
2022/10/08 11:04:46;;;;;;;1.45;1.35;;;;;;;;;;5122467;27;20230;-65
2022/10/08 11:07:22;;;;;;;1.40;1.27;;;;;;;;;;5118394;28;20238;-67
2022/10/08 11:09:54;;;;;;;1.95;1.38;;;;;;;;;;5123796;27;20194;-66
2022/10/08 11:12:27;;;;;;;1.50;1.40;;;;;;;;;;5138585;27;20230;-66
2022/10/08 11:15:02;;;;;;;2.10;1.60;;;;;;;;;;5139219;27;20202;-68
2022/10/08 11:17:35;;;;;;;1.50;1.40;;;;;;;;;;5139234;27;20288;-66
2022/10/08 11:20:09;;;;;;;1.42;1.33;;;;;;;;;;5139582;27;20267;-67
2022/10/08 11:22:39;;;;;;;1.38;1.27;;;;;;;;;;5138847;27;20202;-67
2022/10/08 11:25:16;;;;;;;1.40;1.30;;;;;;;;;;5138902;27;20233;-67
2022/10/08 11:27:48;;;;;;;1.50;1.40;;;;;;;;;;5138070;27;20234;-65
2022/10/08 11:30:18;;;;;;;2.28;1.42;;;;;;;;;;5139272;27;20209;-67
2022/10/08 11:32:50;;;;;;;1.40;1.30;;;;;;;;;;5139062;27;20233;-67
2022/10/08 11:35:25;;;;;;;1.75;1.40;;;;;;;;;;5138030;27;20304;-65
2022/10/08 11:37:57;;;;;;;1.48;1.38;;;;;;;;;;5138638;27;20253;-67
2022/10/08 11:40:29;;;;;;;1.65;1.55;;;;;;;;;;5138737;27;20202;-65
2022/10/08 11:43:00;;;;;;;1.50;1.25;;;;;;;;;;5137971;27;20203;-66
2022/10/08 11:45:35;;;;;;;1.75;1.40;;;;;;;;;;5132094;27;20626;-66
2022/10/08 11:48:24;;;;;;;2.03;1.58;;;;;;;;;;5132349;27;20730;-66
2022/10/08 11:50:52;;;;;;;2.53;1.58;;;;;;;;;;5137719;27;20253;-66
2022/10/08 11:53:21;;;;;;;1.55;1.40;;;;;;;;;;5137075;27;20273;-66
2022/10/08 11:55:51;;;;;;;2.22;1.67;;;;;;;;;;5137017;27;20302;-66
2022/10/08 11:58:22;;;;;;;1.80;1.70;;;;;;;;;;5138177;27;20395;-66
2022/10/08 12:00:52;;;;;;;1.95;1.50;;;;;;;;;;5137040;27;20241;-66
2022/10/08 12:03:25;;;;;;;1.75;1.48;;;;;;;;;;5137632;27;20747;-66
2022/10/08 12:05:54;;;;;;;2.85;1.50;;;;;;;;;;5128929;27;20695;-66
2022/10/08 12:08:40;;;;;;;1.65;1.35;;;;;;;;;;5134579;27;20230;-66
2022/10/08 12:11:22;;;;;;;2.20;1.58;;;;;;;;;;5136564;27;20260;-65
2022/10/08 12:14:15;;;;;;;2.35;1.90;;;;;;;;;;5130564;27;20244;-66
2022/10/08 12:16:58;;;;;;;3.28;1.73;;;;;;;;;;5121197;27;20235;-67
2022/10/08 12:19:44;;;;;;;2.88;1.50;;;;;;;;;;5133753;27;20547;-67
2022/10/08 12:22:26;;;;;;;1.55;1.42;;;;;;;;;;5137331;27;20241;-66
2022/10/08 12:24:57;;;;;;;2.78;1.60;;;;;;;;;;5136602;27;20198;-65
2022/10/08 12:27:30;;;;;;;4.13;1.65;;;;;;;;;;5136473;27;20268;-66
2022/10/08 12:30:00;;;;;;;5.38;1.55;;;;;;;;;;5136240;27;20241;-66
2022/10/08 12:32:28;;;;;;;3.42;1.52;;;;;;;;;;5136636;27;20261;-66
2022/10/08 12:34:56;;;;;;;2.40;1.50;;;;;;;;;;5136302;27;20230;-66
2022/10/08 12:37:32;;;;;;;2.60;1.60;;;;;;;;;;5124595;27;20616;-66
2022/10/08 12:40:02;;;;;;;2.85;1.70;;;;;;;;;;5136728;27;20301;-66
2022/10/08 12:42:32;;;;;;;3.08;1.40;;;;;;;;;;5136599;27;20281;-68
2022/10/08 12:45:06;;;;;;;3.42;1.70;;;;;;;;;;5135195;27;20245;-68
2022/10/08 12:47:41;;;;;;;2.70;1.40;;;;;;;;;;5115030;28;20203;-68
2022/10/08 12:50:20;;;;;;;2.10;1.40;;;;;;;;;;5132258;27;20197;-65
2022/10/08 12:52:48;;;;;;;2.40;1.50;;;;;;;;;;5135759;27;20222;-65
2022/10/08 12:55:18;;;;;;;2.13;1.50;;;;;;;;;;5135165;27;20542;-66
2022/10/08 12:57:47;;;;;;;1.80;1.20;;;;;;;;;;5135731;27;20278;-66
2022/10/08 13:00:21;;;;;;;2.65;1.50;;;;;;;;;;5136541;27;20199;-66
2022/10/08 13:02:59;;;;;;;2.28;1.45;;;;;;;;;;5136122;27;20559;-66
2022/10/08 13:05:28;;;;;;;1.75;1.50;;;;;;;;;;5136097;27;20238;-66
2022/10/08 13:07:56;;;;;;;2.05;1.50;;;;;;;;;;5136062;27;20245;-66
2022/10/08 13:10:24;;;;;;;2.17;1.30;;;;;;;;;;5136003;27;20654;-66
2022/10/08 13:13:02;;;;;;;2.45;1.50;;;;;;;;;;5134830;27;20225;-66
2022/10/08 13:15:32;;;;;;;3.17;1.75;;;;;;;;;;5136448;27;20570;-66
2022/10/08 13:17:59;;;;;;;2.67;1.60;;;;;;;;;;5136337;27;20202;-66
2022/10/08 13:20:27;;;;;;;1.50;1.30;;;;;;;;;;5136390;27;20572;-66
2022/10/08 13:22:54;;;;;;;2.42;1.38;;;;;;;;;;5129170;27;20223;-66
2022/10/08 13:25:36;;;;;;;2.25;1.60;;;;;;;;;;5132427;27;20518;-65
2022/10/08 13:28:11;;;;;;;1.83;1.38;;;;;;;;;;5135622;27;20290;-67
2022/10/08 13:30:40;;;;;;;2.15;1.30;;;;;;;;;;5134736;27;20240;-67
2022/10/08 13:33:12;;;;;;;1.70;1.52;;;;;;;;;;5134347;27;20309;-67
2022/10/08 13:35:41;;;;;;;2.03;1.23;;;;;;;;;;5135422;27;20202;-68
2022/10/08 13:38:10;;;;;;;2.03;1.50;;;;;;;;;;5135224;27;20198;-66
2022/10/08 13:40:38;;;;;;;2.13;1.38;;;;;;;;;;5135694;27;20200;-66
2022/10/08 13:43:07;;;;;;;1.92;1.15;;;;;;;;;;5128847;28;20187;-65
2022/10/08 13:45:36;;;;;;;2.63;1.52;;;;;;;;;;5125944;28;20561;-66
2022/10/08 13:48:06;;;;;;;1.83;1.30;;;;;;;;;;5136047;28;20233;-66
2022/10/08 13:50:34;;;;;;;1.13;1.02;;;;;;;;;;5135729;28;20609;-66
2022/10/08 13:53:02;;;;;;;2.03;1.27;;;;;;;;;;5135682;28;20309;-66
2022/10/08 13:55:32;;;;;;;2.15;1.30;;;;;;;;;;5136211;28;20623;-66
2022/10/08 13:58:00;;;;;;;1.27;1.13;;;;;;;;;;5135702;28;20601;-66
2022/10/08 14:00:28;;;;;;;1.35;1.10;;;;;;;;;;5135624;28;20301;-66
2022/10/08 14:02:56;;;;;;;1.42;1.30;;;;;;;;;;5130696;28;20187;-66
2022/10/08 14:05:25;;;;;;;1.77;1.40;;;;;;;;;;5124211;27;20344;-67
2022/10/08 14:07:56;;;;;;;1.33;1.10;;;;;;;;;;5135829;27;20230;-66
2022/10/08 14:10:23;;;;;;;1.75;1.40;;;;;;;;;;5136109;28;20387;-66
2022/10/08 14:12:51;;;;;;;2.38;1.33;;;;;;;;;;5134910;27;20295;-66
2022/10/08 14:15:19;;;;;;;1.50;1.10;;;;;;;;;;5135980;28;20650;-67
2022/10/08 14:17:48;;;;;;;1.40;1.27;;;;;;;;;;5135330;28;20198;-66
2022/10/08 14:20:15;;;;;;;1.30;1.08;;;;;;;;;;5134995;28;20207;-66
2022/10/08 14:22:45;;;;;;;1.55;1.05;;;;;;;;;;5132725;28;20206;-66
2022/10/08 14:25:15;;;;;;;1.33;1.00;;;;;;;;;;5121533;28;20294;-66
2022/10/08 14:27:43;;;;;;;1.20;1.10;;;;;;;;;;5134433;28;20255;-66
2022/10/08 14:30:11;;;;;;;1.80;1.20;;;;;;;;;;5135438;27;20234;-66
2022/10/08 14:32:39;;;;;;;2.00;1.38;;;;;;;;;;5135080;27;20233;-66
2022/10/08 14:35:07;;;;;;;1.20;1.10;;;;;;;;;;5138900;27;20555;-66
2022/10/08 14:37:34;;;;;;;1.30;1.13;;;;;;;;;;5139242;27;20293;-66
2022/10/08 14:40:03;;;;;;;2.03;1.15;;;;;;;;;;5139159;27;20713;-66
2022/10/08 14:42:31;;;;;;;1.13;1.02;;;;;;;;;;5138231;27;20209;-66
2022/10/08 14:44:58;;;;;;;1.40;0.93;;;;;;;;;;5103339;28;20191;-66
2022/10/08 14:47:26;;;;;;;1.58;1.27;;;;;;;;;;5117911;28;20579;-66
2022/10/08 14:49:53;;;;;;;1.58;0.93;;;;;;;;;;5117862;28;20202;-68
2022/10/08 14:52:21;;;;;;;1.20;1.10;;;;;;;;;;5118338;28;20223;-65
2022/10/08 14:54:48;;;;;;;1.42;1.10;;;;;;;;;;5137227;27;20277;-65
2022/10/08 14:57:17;;;;;;;1.63;1.27;;;;;;;;;;5138492;27;20204;-66
2022/10/08 14:59:44;;;;;;;1.00;0.90;;;;;;;;;;5138945;27;20618;-66